Home > Products > Valid Products > TAF

000
FTUS42 KMHX 030531
TAFEWN
TAF
KEWN 030531Z 0306/0406 VRB05KT P6SM VCSH SCT020 BKN040
      TEMPO 0306/0307 4SM -RA BKN020
     FM031000 VRB03KT 4SM BR SCT050
     FM031300 29005KT P6SM SCT050
     FM031800 28006KT P6SM VCSH BKN050
     FM032300 19004KT P6SM SCT050=



000
FTUS42 KMHX 022320
TAFEWN
TAF
KEWN 022320Z 0300/0324 VRB03KT P6SM VCTS BKN060CB
     FM031000 00000KT 4SM BR VCSH SCT050
     FM031300 31005KT P6SM FEW050=



000
FTUS42 KMHX 022320
TAFEWN
TAF
KEWN 022320Z 0300/0324 VRB03KT P6SM VCTS BKN060CB
     FM031000 00000KT 4SM BR VCSH SCT050
     FM031300 31005KT P6SM FEW050=



000
FTUS42 KMHX 021753
TAFEWN
TAF
KEWN 021753Z 0218/0318 28005KT P6SM SCT050
     FM030000 18005KT P6SM BKN060
     FM031300 31005KT P6SM SCT050=



000
FTUS42 KMHX 021309 AAA
TAFEWN
TAF AMD
KEWN 021309Z 0213/0312 33005KT P6SM SCT050
     FM022200 18005KT P6SM BKN050=



000
FTUS42 KMHX 021309 AAA
TAFEWN
TAF AMD
KEWN 021309Z 0213/0312 33005KT P6SM SCT050
     FM022200 18005KT P6SM BKN050=



000
FTUS42 KMHX 021139
TAFEWN
TAF
KEWN 021139Z 0212/0312 00000KT 3SM BR SCT002
      TEMPO 0212/0213 2SM BR BKN002
     FM021300 30005KT P6SM SCT050
     FM022200 18005KT P6SM BKN050=



000
FTUS42 KMHX 021139
TAFEWN
TAF
KEWN 021139Z 0212/0312 00000KT 3SM BR SCT002
      TEMPO 0212/0213 2SM BR BKN002
     FM021300 30005KT P6SM SCT050
     FM022200 18005KT P6SM BKN050=



000
FTUS42 KMHX 020537
TAFEWN
TAF
KEWN 020537Z 0206/0306 23003KT P6SM SCT250
     FM020800 26002KT 4SM BR SCT005
     FM021300 30005KT P6SM SCT050
     FM022200 18005KT P6SM BKN050=



000
FTUS42 KMHX 012320
TAFEWN
TAF
KEWN 012320Z 0200/0224 VRB03KT P6SM SKC
     FM020600 00000KT 4SM BR SCT005
     FM021300 VRB05KT P6SM SCT250=



000
FTUS42 KMHX 011722
TAFEWN
TAF
KEWN 011722Z 0118/0218 31005KT P6SM SCT050
     FM020600 00000KT 3SM BR SCT005
     FM021300 VRB03KT P6SM SCT250
     FM021700 VRB03KT P6SM BKN250=



000
FTUS42 KMHX 011722
TAFEWN
TAF
KEWN 011722Z 0118/0218 31005KT P6SM SCT050
     FM020600 00000KT 3SM BR SCT005
     FM021300 VRB03KT P6SM SCT250
     FM021700 VRB03KT P6SM BKN250=



000
FTUS42 KMHX 011627 AAE
TAFEWN
TAF AMD
KEWN 011627Z 0116/0212 29005KT P6SM OVC035
     FM011800 27005KT P6SM SCT025 SCT045
     FM020600 00000KT 3SM BR SCT005=



000
FTUS42 KMHX 011627 AAE
TAFEWN
TAF AMD
KEWN 011627Z 0116/0212 29005KT P6SM OVC035
     FM011800 27005KT P6SM SCT025 SCT045
     FM020600 00000KT 3SM BR SCT005=



000
FTUS42 KMHX 011507 AAD
TAFEWN
TAF AMD
KEWN 011507Z 0115/0212 34005KT P6SM OVC025
     FM011800 27005KT P6SM SCT025 SCT045
     FM020600 00000KT 3SM BR SCT005=



000
FTUS42 KMHX 011507 AAD
TAFEWN
TAF AMD
KEWN 011507Z 0115/0212 34005KT P6SM OVC025
     FM011800 27005KT P6SM SCT025 SCT045
     FM020600 00000KT 3SM BR SCT005=



000
FTUS42 KMHX 011432 AAC
TAFEWN
TAF AMD
KEWN 011432Z 0115/0212 34005KT P6SM OVC025
     FM011530 27005KT P6SM SCT025 SCT045
     FM020600 00000KT 3SM BR SCT005=



000
FTUS42 KMHX 011327 AAB
TAFEWN
TAF AMD
KEWN 011327Z 0113/0212 31005KT P6SM BKN007 BKN015 OVC022
     FM011430 27005KT P6SM SCT025 SCT045
     FM020600 00000KT 3SM BR SCT005=



000
FTUS42 KMHX 011253 AAA
TAFEWN
TAF AMD
KEWN 011253Z 0113/0212 31005KT P6SM SCT007 BKN015
     FM011430 27005KT P6SM SCT025 SCT045
     FM020600 00000KT 3SM BR SCT005=



000
FTUS42 KMHX 011253 AAA
TAFEWN
TAF AMD
KEWN 011253Z 0113/0212 31005KT P6SM SCT007 BKN015
     FM011430 27005KT P6SM SCT025 SCT045
     FM020600 00000KT 3SM BR SCT005=



000
FTUS42 KMHX 011143
TAFEWN
TAF
KEWN 011143Z 0112/0212 00000KT P6SM BKN015
     FM011430 27004KT P6SM SCT025 SCT045
     FM020600 00000KT 3SM BR SCT005=



000
FTUS42 KMHX 011143
TAFEWN
TAF
KEWN 011143Z 0112/0212 00000KT P6SM BKN015
     FM011430 27004KT P6SM SCT025 SCT045
     FM020600 00000KT 3SM BR SCT005=



000
FTUS42 KMHX 010929 AAA
TAFEWN
TAF AMD
KEWN 010929Z 0109/0206 00000KT 5SM BR BKN007
     FM011430 27004KT P6SM SCT025=



000
FTUS42 KMHX 010535
TAFEWN
TAF
KEWN 010535Z 0106/0206 00000KT 4SM BR BKN007
     FM010800 00000KT 3/4SM BR VV003
     FM011300 VRB03KT P6SM BKN009
     FM011430 27004KT P6SM SCT025=



000
FTUS42 KMHX 010415 AAA
TAFEWN
TAF AMD
KEWN 010415Z 0104/0124 00000KT 3/4SM BR BKN005
     FM010800 00000KT 3/4SM BR VV003
     FM011300 VRB03KT P6SM BKN025=



000
FTUS42 KMHX 312352
TAFEWN
TAF
KEWN 312352Z 0100/0124 16003KT P6SM VCSH SCT010 BKN025
     FM010300 VRB03KT 5SM BR BKN010
     FM010600 00000KT 3SM BR OVC007
     FM010800 00000KT 2SM BR OVC004
     FM011330 VRB03KT P6SM BKN025=



000
FTUS42 KMHX 312010 AAA
TAFEWN
TAF AMD
KEWN 312010Z 3120/0118 15005KT P6SM VCSH BKN012
     FM010200 17005KT P6SM BKN012
     FM010600 00000KT 4SM BR OVC007
      TEMPO 0108/0112 2SM BR OVC004
     FM011500 VRB03KT P6SM BKN025=



000
FTUS42 KMHX 311800 CCA
TAFEWN
TAF COR
KEWN 311800Z 3118/0118 VRB06KT P6SM VCSH SCT005 BKN020
     FM312100 17005KT P6SM VCSH BKN015
     FM010600 00000KT 4SM BR OVC007
      TEMPO 0108/0112 2SM BR OVC004
     FM011500 VRB03KT P6SM BKN025=



000
FTUS42 KMHX 311800 CCA
TAFEWN
TAF COR
KEWN 311800Z 3118/0118 VRB06KT P6SM VCSH SCT005 BKN020
     FM312100 17005KT P6SM VCSH BKN015
     FM010600 00000KT 4SM BR OVC007
      TEMPO 0108/0112 2SM BR OVC004
     FM011500 VRB03KT P6SM BKN025=



000
FTUS42 KMHX 311741
TAFEWN
TAF
KEWN 311741Z 3118/0118 18006KT P6SM SHRA SCT015 BKN025
      TEMPO 3118/3121 3SM BR
     FM312100 17005KT P6SM VCSH BKN015
     FM010600 00000KT 4SM BR OVC007
      TEMPO 0108/0112 2SM BR OVC004
     FM011500 VRB03KT P6SM BKN025=



000
FTUS42 KMHX 311741
TAFEWN
TAF
KEWN 311741Z 3118/0118 18006KT P6SM SHRA SCT015 BKN025
      TEMPO 3118/3121 3SM BR
     FM312100 17005KT P6SM VCSH BKN015
     FM010600 00000KT 4SM BR OVC007
      TEMPO 0108/0112 2SM BR OVC004
     FM011500 VRB03KT P6SM BKN025=



000
FTUS42 KMHX 311646 AAC
TAFEWN
TAF AMD
KEWN 311646Z 3117/0112 VRB05KT P6SM SHRA BKN050 OVC090
      TEMPO 3117/3118 1/2SM SHRA BKN025 OVC035
     FM312100 15005KT P6SM VCSH BKN024
      TEMPO 0102/0106 BKN010
     FM010600 00000KT 2SM BR OVC004=



000
FTUS42 KMHX 311646 AAC
TAFEWN
TAF AMD
KEWN 311646Z 3117/0112 VRB05KT P6SM SHRA BKN050 OVC090
      TEMPO 3117/3118 1/2SM SHRA BKN025 OVC035
     FM312100 15005KT P6SM VCSH BKN024
      TEMPO 0102/0106 BKN010
     FM010600 00000KT 2SM BR OVC004=



000
FTUS42 KMHX 311629 AAB
TAFEWN
TAF AMD
KEWN 311629Z 3116/0112 10005KT P6SM SHRA BKN050 OVC090
      TEMPO 3117/3118 2SM SHRA
     FM312100 15005KT P6SM VCSH BKN024
      TEMPO 0102/0106 BKN010
     FM010600 00000KT 2SM BR OVC004=



000
FTUS42 KMHX 311629 AAB
TAFEWN
TAF AMD
KEWN 311629Z 3116/0112 10005KT P6SM SHRA BKN050 OVC090
      TEMPO 3117/3118 2SM SHRA
     FM312100 15005KT P6SM VCSH BKN024
      TEMPO 0102/0106 BKN010
     FM010600 00000KT 2SM BR OVC004=



000
FTUS42 KMHX 311627 AAA
TAFEWN
TAF AMD
KEWN 311627Z 3116/0112 10005KT P6SM SHRA BKN050 OVC090
      TEMPO 3117/3118 2SM SHRA OVC006
     FM312100 15005KT P6SM VCSH BKN024
      TEMPO 0102/0106 BKN010
     FM010600 00000KT 2SM BR OVC004=



000
FTUS42 KMHX 311627 AAA
TAFEWN
TAF AMD
KEWN 311627Z 3116/0112 10005KT P6SM SHRA BKN050 OVC090
      TEMPO 3117/3118 2SM SHRA OVC006
     FM312100 15005KT P6SM VCSH BKN024
      TEMPO 0102/0106 BKN010
     FM010600 00000KT 2SM BR OVC004=



000
FTUS42 KMHX 311134
TAFEWN
TAF
KEWN 311134Z 3112/0112 12005KT P6SM SHRA BKN050 OVC090
     FM312100 15005KT P6SM VCSH BKN024
      TEMPO 0102/0106 BKN010
     FM010600 00000KT 2SM BR OVC004=



    US Dept of Commerce
    National Oceanic and Atmospheric Administration
    National Weather Service
    1325 East West Highway
    Silver Spring, MD 20910
    Page Author: NWS Internet Services Team
Disclaimer
Information Quality
Credits
Glossary
Privacy Policy
Freedom of Information Act (FOIA)
About Us
Career Opportunities